createdAt,value
2018-10-15T00:00:57.128Z,100197.82
2018-10-15T00:03:25.244Z,100196.37
2018-10-15T00:05:53.319Z,100200.45
2018-10-15T00:08:21.475Z,100197.77
2018-10-15T00:10:49.548Z,100202.95
2018-10-15T00:13:17.648Z,100201.11
2018-10-15T00:15:45.759Z,100194.42
2018-10-15T00:18:13.852Z,100201.91
2018-10-15T00:20:41.939Z,100204.70
2018-10-15T00:23:10.046Z,100200.58
2018-10-15T00:25:38.211Z,100204.59
2018-10-15T00:28:06.423Z,100202.97
2018-10-15T00:30:34.517Z,100205.35
2018-10-15T00:33:02.595Z,100210.29
2018-10-15T00:35:30.679Z,100214.48
2018-10-15T00:37:58.791Z,100214.31
2018-10-15T00:40:26.883Z,100213.89
2018-10-15T00:42:54.987Z,100213.70
2018-10-15T00:45:23.095Z,100222.52
2018-10-15T00:47:51.180Z,100219.20
2018-10-15T00:50:19.322Z,100221.04
2018-10-15T00:52:47.407Z,100225.89
2018-10-15T00:55:15.524Z,100230.83
2018-10-15T00:57:43.685Z,100231.03
2018-10-15T01:00:13.940Z,100232.39
2018-10-15T01:02:42.092Z,100233.22
2018-10-15T01:05:11.224Z,100236.72
2018-10-15T01:07:40.267Z,100236.44
2018-10-15T01:10:09.502Z,100239.96
2018-10-15T01:12:37.585Z,100240.19
2018-10-15T01:15:06.988Z,100240.37
2018-10-15T01:17:35.110Z,100234.91
2018-10-15T01:20:03.419Z,100240.19
2018-10-15T01:22:31.504Z,100242.33
2018-10-15T01:24:59.642Z,100234.80
2018-10-15T01:27:27.718Z,100240.48
2018-10-15T01:29:55.792Z,100239.27
2018-10-15T01:32:23.859Z,100235.75
2018-10-15T01:34:51.979Z,100233.27
2018-10-15T01:37:20.064Z,100234.94
2018-10-15T01:39:48.155Z,100233.05
2018-10-15T01:42:16.227Z,100235.44
2018-10-15T01:44:44.318Z,100235.32
2018-10-15T01:47:12.428Z,100230.69
2018-10-15T01:49:40.507Z,100232.75
2018-10-15T01:52:08.588Z,100236.77
2018-10-15T01:54:36.677Z,100238.22
2018-10-15T01:57:04.935Z,100231.02
2018-10-15T01:59:33.038Z,100240.18
2018-10-15T02:02:07.888Z,100234.81
2018-10-15T02:04:36.024Z,100231.64
2018-10-15T02:07:04.571Z,100231.82
2018-10-15T02:09:32.680Z,100241.30
2018-10-15T02:12:00.751Z,100242.58
2018-10-15T02:14:29.155Z,100248.77
2018-10-15T02:16:57.220Z,100249.39
2018-10-15T02:19:25.292Z,100254.64
2018-10-15T02:21:53.363Z,100255.83
2018-10-15T02:24:21.447Z,100256.95
2018-10-15T02:26:49.536Z,100252.43
2018-10-15T02:29:17.777Z,100247.80
2018-10-15T02:31:45.886Z,100245.44
2018-10-15T02:34:13.955Z,100249.34
2018-10-15T02:36:42.122Z,100247.66
2018-10-15T02:39:12.044Z,100253.46
2018-10-15T02:41:40.295Z,100251.72
2018-10-15T02:44:08.707Z,100257.03
2018-10-15T02:46:37.206Z,100254.22
2018-10-15T02:49:05.288Z,100252.66
2018-10-15T02:51:33.411Z,100257.48
2018-10-15T02:54:01.564Z,100254.80
2018-10-15T02:56:29.657Z,100258.52
2018-10-15T02:58:57.892Z,100251.51
2018-10-15T03:01:25.973Z,100242.96
2018-10-15T03:03:54.061Z,100248.73
2018-10-15T03:06:22.162Z,100256.66
2018-10-15T03:08:50.279Z,100254.74
2018-10-15T03:11:18.404Z,100261.23
2018-10-15T03:13:46.495Z,100253.94
2018-10-15T03:16:14.567Z,100264.91
2018-10-15T03:18:42.657Z,100262.42
2018-10-15T03:21:10.745Z,100265.48
2018-10-15T03:23:38.840Z,100260.25
2018-10-15T03:26:06.918Z,100268.25
2018-10-15T03:28:35.010Z,100266.14
2018-10-15T03:31:03.156Z,100265.64
2018-10-15T03:33:31.259Z,100274.98
2018-10-15T03:35:59.338Z,100273.46
2018-10-15T03:38:27.495Z,100269.69
2018-10-15T03:40:55.847Z,100267.95
2018-10-15T03:43:23.944Z,100275.17
2018-10-15T03:45:52.020Z,100277.05
2018-10-15T03:48:20.160Z,100287.49
2018-10-15T03:50:48.239Z,100297.20
2018-10-15T03:53:16.314Z,100290.66
2018-10-15T03:55:44.404Z,100285.84
2018-10-15T03:58:12.588Z,100289.15
2018-10-15T04:00:40.703Z,100292.12
2018-10-15T04:03:08.835Z,100285.63
2018-10-15T04:05:36.923Z,100289.23
2018-10-15T04:08:05.011Z,100295.42
2018-10-15T04:10:33.111Z,100299.98
2018-10-15T04:13:01.220Z,100301.64
2018-10-15T04:15:29.299Z,100300.75
2018-10-15T04:17:57.413Z,100300.96
2018-10-15T04:20:25.491Z,100305.60
2018-10-15T04:22:53.584Z,100309.58
2018-10-15T04:25:22.811Z,100308.06
2018-10-15T04:27:50.931Z,100313.88
2018-10-15T04:30:19.259Z,100311.11
2018-10-15T04:32:48.054Z,100309.14
2018-10-15T04:35:16.301Z,100307.28
2018-10-15T04:37:44.393Z,100312.94
2018-10-15T04:40:13.297Z,100317.26
2018-10-15T04:42:42.491Z,100317.41
2018-10-15T04:45:11.803Z,100313.05
2018-10-15T04:47:40.267Z,100314.64
2018-10-15T04:50:08.973Z,100318.78
2018-10-15T04:52:37.245Z,100320.16
2018-10-15T04:55:06.386Z,100318.98
2018-10-15T04:57:34.711Z,100318.94
2018-10-15T05:00:02.799Z,100316.06
2018-10-15T05:02:30.907Z,100316.72
2018-10-15T05:04:59.198Z,100325.44
2018-10-15T05:07:27.363Z,100323.41
2018-10-15T05:09:55.471Z,100333.31
2018-10-15T05:12:23.720Z,100332.69
2018-10-15T05:14:51.680Z,100336.66
2018-10-15T05:17:19.801Z,100339.12
2018-10-15T05:19:47.920Z,100349.44
2018-10-15T05:22:16.023Z,100350.47
2018-10-15T05:24:44.175Z,100356.31
2018-10-15T05:27:12.284Z,100353.61
2018-10-15T05:29:40.395Z,100360.18
2018-10-15T05:32:08.582Z,100356.11
2018-10-15T05:34:36.686Z,100361.05
2018-10-15T05:37:04.781Z,100355.41
2018-10-15T05:39:32.937Z,100355.38
2018-10-15T05:42:01.046Z,100356.69
2018-10-15T05:44:29.365Z,100370.83
2018-10-15T06:00:59.887Z,100388.98
2018-10-15T06:03:27.959Z,100391.65
2018-10-15T06:05:56.058Z,100394.52
2018-10-15T06:08:24.183Z,100392.98
2018-10-15T06:10:52.264Z,100394.16
2018-10-15T06:13:20.367Z,100396.55
2018-10-15T06:15:48.415Z,100402.53
2018-10-15T06:18:16.570Z,100404.16
2018-10-15T06:20:44.576Z,100404.70
2018-10-15T06:23:12.688Z,100408.01
2018-10-15T06:25:40.784Z,100413.89
2018-10-15T06:28:08.893Z,100402.78
2018-10-15T06:30:36.968Z,100409.90
2018-10-15T06:33:05.325Z,100407.59
2018-10-15T06:35:33.399Z,100409.87
2018-10-15T06:38:01.490Z,100409.98
2018-10-15T06:40:29.556Z,100411.55
2018-10-15T06:42:57.645Z,100410.19
2018-10-15T06:45:25.870Z,100412.77
2018-10-15T06:47:53.787Z,100403.89
2018-10-15T06:50:21.871Z,100413.89
2018-10-15T06:52:49.951Z,100419.47
2018-10-15T06:55:18.178Z,100422.67
2018-10-15T06:57:46.232Z,100427.23
2018-10-15T07:00:14.364Z,100429.27
2018-10-15T07:02:42.391Z,100424.85
2018-10-15T07:05:10.495Z,100425.58
2018-10-15T07:07:38.703Z,100431.85
2018-10-15T07:10:07.512Z,100436.39
2018-10-15T07:12:35.572Z,100430.22
2018-10-15T07:15:03.656Z,100435.87
2018-10-15T07:17:31.780Z,100435.75
2018-10-15T07:19:59.902Z,100436.73
2018-10-15T07:22:27.943Z,100439.80
2018-10-15T07:25:07.477Z,100440.27
2018-10-15T07:27:35.542Z,100442.38
2018-10-15T07:30:03.688Z,100440.30
2018-10-15T07:32:31.788Z,100442.84
2018-10-15T07:34:59.868Z,100449.02
2018-10-15T07:37:28.211Z,100447.23
2018-10-15T07:39:56.291Z,100449.95
2018-10-15T07:42:24.435Z,100452.83
2018-10-15T07:44:52.638Z,100448.80
2018-10-15T07:47:20.727Z,100454.91
2018-10-15T07:49:48.788Z,100460.77
2018-10-15T07:52:16.996Z,100464.63
2018-10-15T07:54:45.032Z,100468.59
2018-10-15T07:57:13.104Z,100462.89
2018-10-15T07:59:41.309Z,100469.42
2018-10-15T08:02:09.444Z,100468.69
2018-10-15T08:04:37.718Z,100464.14
2018-10-15T08:07:05.831Z,100468.22
2018-10-15T08:09:33.919Z,100469.11
2018-10-15T08:12:02.097Z,100469.61
2018-10-15T08:14:30.206Z,100471.36
2018-10-15T08:16:58.299Z,100472.34
2018-10-15T08:19:26.380Z,100477.95
2018-10-15T08:21:54.446Z,100476.00
2018-10-15T08:24:22.516Z,100474.59
2018-10-15T08:26:51.577Z,100468.14
2018-10-15T08:29:19.680Z,100470.74
2018-10-15T08:31:47.776Z,100475.77
2018-10-15T08:34:15.907Z,100473.45
2018-10-15T08:36:43.988Z,100480.32
2018-10-15T08:39:12.574Z,100483.32
2018-10-15T08:41:40.690Z,100482.34
2018-10-15T08:44:08.742Z,100478.23
2018-10-15T08:46:36.802Z,100479.66
2018-10-15T08:49:05.374Z,100483.16
2018-10-15T08:51:33.591Z,100477.27
2018-10-15T08:54:01.698Z,100477.55
2018-10-15T08:56:29.777Z,100472.00
2018-10-15T08:58:57.851Z,100466.52
2018-10-15T09:01:25.963Z,100464.30
2018-10-15T09:03:54.711Z,100465.45
2018-10-15T09:06:22.942Z,100459.92
2018-10-15T09:08:53.008Z,100461.94
2018-10-15T09:11:21.579Z,100463.56
2018-10-15T09:13:49.662Z,100466.73
2018-10-15T09:16:17.744Z,100465.97
2018-10-15T09:18:45.899Z,100468.41
2018-10-15T09:21:13.972Z,100469.05
2018-10-15T09:23:42.030Z,100474.77
2018-10-15T09:26:10.111Z,100480.21
2018-10-15T09:28:38.248Z,100474.01
2018-10-15T09:31:06.482Z,100479.30
2018-10-15T09:33:34.897Z,100476.48
2018-10-15T09:36:02.831Z,100485.88
2018-10-15T09:38:30.971Z,100482.65
2018-10-15T09:40:59.119Z,100479.06
2018-10-15T09:43:27.088Z,100473.78
2018-10-15T09:45:55.217Z,100466.07
2018-10-15T09:48:23.244Z,100469.61
2018-10-15T09:50:51.344Z,100468.81
2018-10-15T09:53:19.453Z,100472.16
2018-10-15T09:55:47.460Z,100463.77
2018-10-15T09:58:15.543Z,100464.75
2018-10-15T10:00:48.968Z,100463.73
2018-10-15T10:03:17.061Z,100458.14
2018-10-15T10:05:45.176Z,100459.73
2018-10-15T10:08:13.249Z,100462.53
2018-10-15T10:10:41.412Z,100462.40
2018-10-15T10:13:09.513Z,100463.36
2018-10-15T10:15:37.744Z,100458.52
2018-10-15T10:18:06.085Z,100459.23
2018-10-15T10:20:34.044Z,100455.83
2018-10-15T10:23:02.257Z,100455.16
2018-10-15T10:25:30.283Z,100450.19
2018-10-15T10:27:58.378Z,100452.38
2018-10-15T10:30:26.462Z,100453.53
2018-10-15T10:32:54.590Z,100448.44
2018-10-15T10:36:02.211Z,100451.11
2018-10-15T10:38:51.936Z,100444.30
2018-10-15T10:41:19.955Z,100446.48
2018-10-15T10:43:48.346Z,100438.98
2018-10-15T10:46:16.433Z,100442.32
2018-10-15T10:48:44.526Z,100442.58
2018-10-15T10:51:12.683Z,100440.44
2018-10-15T10:53:41.010Z,100438.60
2018-10-15T10:56:09.140Z,100445.19
2018-10-15T10:58:37.226Z,100443.66
2018-10-15T11:01:05.568Z,100440.89
2018-10-15T11:03:33.655Z,100443.45
2018-10-15T11:06:01.727Z,100433.58
2018-10-15T11:08:29.929Z,100440.27
2018-10-15T11:10:57.954Z,100425.18
2018-10-15T11:13:26.051Z,100419.75
2018-10-15T11:15:54.118Z,100419.00
2018-10-15T11:18:22.249Z,100415.06
2018-10-15T11:20:50.342Z,100407.88
2018-10-15T11:23:18.406Z,100409.61
2018-10-15T11:25:46.456Z,100411.68
2018-10-15T11:28:14.567Z,100404.70
2018-10-15T11:30:42.623Z,100407.19
2018-10-15T11:33:10.737Z,100399.20
2018-10-15T11:35:38.818Z,100400.50
2018-10-15T11:38:06.908Z,100394.66
2018-10-15T11:40:34.987Z,100391.12
2018-10-15T11:43:03.100Z,100389.00
2018-10-15T11:45:31.175Z,100387.70
2018-10-15T11:47:59.234Z,100377.45
2018-10-15T11:50:27.351Z,100386.93
2018-10-15T11:52:55.419Z,100383.07
2018-10-15T11:55:23.512Z,100379.77
2018-10-15T11:57:51.588Z,100383.14
2018-10-15T12:00:19.681Z,100386.78
2018-10-15T12:02:48.564Z,100371.80
2018-10-15T12:05:16.683Z,100375.73
2018-10-15T12:07:44.763Z,100372.56
2018-10-15T12:10:13.591Z,100374.20
2018-10-15T12:12:41.654Z,100369.36
2018-10-15T12:15:11.234Z,100368.02
2018-10-15T12:17:39.841Z,100369.95
2018-10-15T12:20:09.139Z,100356.64
2018-10-15T12:22:37.543Z,100361.83
2018-10-15T12:25:07.158Z,100350.41
2018-10-15T12:27:35.393Z,100346.05
2018-10-15T12:30:03.567Z,100340.11
2018-10-15T12:32:31.680Z,100345.05
2018-10-15T12:34:59.771Z,100344.27
2018-10-15T12:37:27.843Z,100341.80
2018-10-15T12:39:55.945Z,100339.92
2018-10-15T12:42:24.041Z,100344.58
2018-10-15T12:44:52.155Z,100339.38
2018-10-15T12:47:20.252Z,100336.39
2018-10-15T12:49:48.349Z,100336.38
2018-10-15T12:52:16.488Z,100336.67
2018-10-15T12:54:44.584Z,100340.75
2018-10-15T12:57:12.900Z,100331.77
2018-10-15T12:59:40.860Z,100338.33
2018-10-15T13:02:08.944Z,100336.14
2018-10-15T13:04:37.023Z,100341.58
2018-10-15T13:07:05.280Z,100326.88
2018-10-15T13:09:33.359Z,100330.12
2018-10-15T13:12:01.441Z,100328.78
2018-10-15T13:14:29.519Z,100327.12
2018-10-15T13:16:57.639Z,100329.62
2018-10-15T13:19:25.755Z,100320.61
2018-10-15T13:21:53.872Z,100321.71
2018-10-15T13:24:21.948Z,100321.41
2018-10-15T13:26:50.020Z,100311.59
2018-10-15T13:29:18.092Z,100323.61
2018-10-15T13:31:46.348Z,100326.61
2018-10-15T13:34:14.498Z,100320.33
2018-10-15T13:36:42.615Z,100324.96
2018-10-15T13:39:10.664Z,100312.70
2018-10-15T13:41:38.736Z,100318.39
2018-10-15T13:44:06.835Z,100314.84
2018-10-15T13:46:34.906Z,100315.37
2018-10-15T13:49:02.996Z,100308.28
2018-10-15T13:51:31.196Z,100308.56
2018-10-15T13:53:59.291Z,100306.05
2018-10-15T13:56:27.371Z,100305.22
2018-10-15T13:58:55.443Z,100306.88
2018-10-15T14:01:23.835Z,100301.39
2018-10-15T14:03:52.314Z,100304.36
2018-10-15T14:06:20.376Z,100298.30
2018-10-15T14:08:48.446Z,100311.16
2018-10-15T14:11:16.524Z,100293.15
2018-10-15T14:13:44.596Z,100306.23
2018-10-15T14:16:12.707Z,100302.17
2018-10-15T14:18:40.805Z,100311.13
2018-10-15T14:21:08.867Z,100311.40
2018-10-15T14:23:37.068Z,100306.73
2018-10-15T14:26:05.334Z,100309.11
2018-10-15T14:28:33.396Z,100313.48
2018-10-15T14:31:01.596Z,100310.22
2018-10-15T14:33:29.647Z,100306.95
2018-10-15T14:35:57.715Z,100320.02
2018-10-15T14:38:25.855Z,100313.25
2018-10-15T14:40:53.895Z,100312.72
2018-10-15T14:43:21.993Z,100315.49
2018-10-15T14:45:50.057Z,100314.62
2018-10-15T14:48:18.112Z,100314.55
2018-10-15T14:50:46.185Z,100312.18
2018-10-15T14:53:14.336Z,100313.30
2018-10-15T14:55:42.428Z,100319.54
2018-10-15T14:58:10.548Z,100321.21
2018-10-15T15:00:38.570Z,100325.77
2018-10-15T15:03:06.656Z,100322.81
2018-10-15T15:05:34.735Z,100323.69
2018-10-15T15:08:02.839Z,100319.84
2018-10-15T15:10:42.201Z,100318.76
2018-10-15T15:13:21.716Z,100327.54
2018-10-15T15:15:49.785Z,100322.63
2018-10-15T15:18:17.867Z,100322.52
2018-10-15T15:20:46.019Z,100319.34
2018-10-15T15:23:14.127Z,100320.48
2018-10-15T15:25:42.302Z,100315.85
2018-10-15T15:28:10.433Z,100324.86
2018-10-15T15:30:38.473Z,100324.36
2018-10-15T15:33:06.574Z,100328.73
2018-10-15T15:35:34.644Z,100341.01
2018-10-15T15:38:02.709Z,100337.17
2018-10-15T15:40:30.811Z,100346.16
2018-10-15T15:42:58.875Z,100341.55
2018-10-15T15:45:27.017Z,100347.00
2018-10-15T15:47:55.085Z,100351.11
2018-10-15T15:50:23.147Z,100354.95
2018-10-15T15:52:51.268Z,100348.14
2018-10-15T15:55:19.333Z,100352.52
2018-10-15T15:57:47.427Z,100353.04
2018-10-15T16:00:15.511Z,100351.94
2018-10-15T16:02:43.601Z,100361.98
2018-10-15T16:05:12.043Z,100366.60
2018-10-15T16:07:40.506Z,100362.77
2018-10-15T16:10:09.382Z,100367.59
2018-10-15T16:12:37.473Z,100367.78
2018-10-15T16:15:06.958Z,100372.12
2018-10-15T16:17:35.048Z,100383.49
2018-10-15T16:20:03.120Z,100380.39
2018-10-15T16:22:31.203Z,100385.62
2018-10-15T16:24:59.276Z,100381.73
2018-10-15T16:27:27.557Z,100388.22
2018-10-15T16:29:55.640Z,100386.24
2018-10-15T16:32:23.704Z,100383.95
2018-10-15T16:34:51.787Z,100385.78
2018-10-15T16:37:19.852Z,100393.25
2018-10-15T16:39:47.933Z,100401.80
2018-10-15T16:42:16.040Z,100409.53
2018-10-15T16:44:44.099Z,100403.43
2018-10-15T16:47:12.191Z,100399.20
2018-10-15T16:49:40.275Z,100412.73
2018-10-15T16:52:08.516Z,100412.41
2018-10-15T16:54:36.496Z,100410.86
2018-10-15T16:57:04.576Z,100413.50
2018-10-15T16:59:32.685Z,100423.20
2018-10-15T17:02:00.755Z,100426.56
2018-10-15T17:04:28.835Z,100430.48
2018-10-15T17:06:56.926Z,100429.02
2018-10-15T17:09:24.989Z,100431.84
2018-10-15T17:11:53.095Z,100431.73
2018-10-15T17:14:21.165Z,100437.95
2018-10-15T17:16:49.294Z,100438.10
2018-10-15T17:19:17.447Z,100439.41
2018-10-15T17:21:45.520Z,100446.73
2018-10-15T17:24:13.589Z,100450.86
2018-10-15T17:26:41.673Z,100449.36
2018-10-15T17:29:10.139Z,100447.19
2018-10-15T17:31:38.418Z,100460.13
2018-10-15T17:34:06.500Z,100452.52
2018-10-15T17:36:34.580Z,100452.70
2018-10-15T17:39:02.656Z,100455.08
2018-10-15T17:41:30.757Z,100457.38
2018-10-15T17:43:59.039Z,100465.20
2018-10-15T17:46:27.168Z,100462.80
2018-10-15T17:48:55.330Z,100461.91
2018-10-15T17:51:23.416Z,100459.45
2018-10-15T17:53:51.503Z,100464.31
2018-10-15T17:56:19.569Z,100466.88
2018-10-15T17:58:47.665Z,100465.35
2018-10-15T18:01:15.728Z,100466.88
2018-10-15T18:03:43.805Z,100472.76
2018-10-15T18:06:11.859Z,100469.42
2018-10-15T18:08:39.927Z,100466.30
2018-10-15T18:11:07.986Z,100463.95
2018-10-15T18:13:36.067Z,100468.46
2018-10-15T18:16:04.135Z,100473.15
2018-10-15T18:18:33.372Z,100472.27
2018-10-15T18:21:01.738Z,100477.16
2018-10-15T18:23:30.052Z,100470.77
2018-10-15T18:25:58.741Z,100478.34
2018-10-15T18:28:28.804Z,100484.36
2018-10-15T18:31:03.407Z,100476.97
2018-10-15T18:33:31.773Z,100478.61
2018-10-15T18:36:02.175Z,100480.27
2018-10-15T18:38:31.805Z,100487.83
2018-10-15T18:41:01.278Z,100482.59
2018-10-15T18:43:31.292Z,100490.20
2018-10-15T18:46:00.731Z,100496.36
2018-10-15T18:48:31.439Z,100492.22
2018-10-15T18:51:04.395Z,100499.13
2018-10-15T18:53:33.332Z,100488.41
2018-10-15T18:56:01.951Z,100494.56
2018-10-15T18:58:30.541Z,100494.26
2018-10-15T19:01:00.567Z,100502.45
2018-10-15T19:03:29.901Z,100506.70
2018-10-15T19:06:02.580Z,100507.22
2018-10-15T19:08:34.605Z,100507.69
2018-10-15T19:11:04.005Z,100506.92
2018-10-15T19:13:34.753Z,100506.97
2018-10-15T19:16:30.104Z,100499.02
2018-10-15T19:19:04.613Z,100508.58
2018-10-15T19:21:37.444Z,100501.15
2018-10-15T19:24:06.707Z,100501.53
2018-10-15T19:29:29.824Z,100503.53
2018-10-15T19:31:58.875Z,100499.62
2018-10-15T19:37:07.911Z,100501.95
2018-10-15T19:39:39.171Z,100505.03
2018-10-15T19:42:12.206Z,100506.47
2018-10-15T19:44:42.218Z,100504.91
2018-10-15T19:47:11.968Z,100510.28
2018-10-15T19:49:41.981Z,100511.53
2018-10-15T19:52:11.799Z,100509.87
2018-10-15T19:54:40.875Z,100526.02
2018-10-15T19:57:09.203Z,100528.45
2018-10-15T19:59:37.510Z,100523.70
2018-10-15T20:04:53.901Z,100526.16
2018-10-15T20:07:24.773Z,100529.45
2018-10-15T20:12:27.647Z,100533.47
2018-10-15T20:14:56.603Z,100543.60
2018-10-15T20:17:29.261Z,100538.52
2018-10-15T20:19:59.023Z,100540.20
2018-10-15T20:22:28.831Z,100537.41
2018-10-15T20:24:58.409Z,100540.48
2018-10-15T20:27:28.334Z,100541.98
2018-10-15T20:30:01.819Z,100544.28
2018-10-15T20:32:32.616Z,100540.72
2018-10-15T20:35:00.790Z,100544.75
2018-10-15T20:37:28.851Z,100547.02
2018-10-15T20:39:56.949Z,100553.13
2018-10-15T20:42:25.089Z,100543.61
2018-10-15T20:44:53.174Z,100554.48
2018-10-15T20:47:21.354Z,100559.27
2018-10-15T20:49:50.404Z,100557.72
2018-10-15T20:52:18.551Z,100556.58
2018-10-15T20:54:46.643Z,100554.31
2018-10-15T20:57:14.787Z,100556.73
2018-10-15T20:59:42.867Z,100571.38
2018-10-15T21:02:10.951Z,100564.13
2018-10-15T21:04:39.089Z,100565.63
2018-10-15T21:07:07.228Z,100564.92
2018-10-15T21:09:35.340Z,100568.84
2018-10-15T21:12:04.068Z,100568.56
2018-10-15T21:14:32.144Z,100565.78
2018-10-15T21:17:00.237Z,100571.26
2018-10-15T21:19:28.324Z,100568.58
2018-10-15T21:21:56.413Z,100574.55
2018-10-15T21:24:24.492Z,100571.97
2018-10-15T21:26:52.571Z,100571.47
2018-10-15T21:29:20.657Z,100568.16
2018-10-15T21:31:48.759Z,100564.42
2018-10-15T21:34:16.892Z,100563.15
2018-10-15T21:36:44.984Z,100572.43
2018-10-15T21:39:13.095Z,100574.67
2018-10-15T21:41:42.396Z,100568.78
2018-10-15T21:44:10.753Z,100571.89
2018-10-15T21:46:42.674Z,100574.25
2018-10-15T21:49:11.648Z,100578.16
2018-10-15T21:51:42.797Z,100573.25
2018-10-15T21:54:20.838Z,100571.20
2018-10-15T21:56:51.774Z,100571.86
2018-10-15T21:59:21.294Z,100572.72
2018-10-15T22:01:50.143Z,100574.55
2018-10-15T22:04:20.326Z,100575.23
2018-10-15T22:06:50.006Z,100570.39
2018-10-15T22:09:18.642Z,100575.84
2018-10-15T22:11:48.522Z,100574.53
2018-10-15T22:14:17.595Z,100578.76
2018-10-15T22:16:48.998Z,100577.34
2018-10-15T22:19:18.606Z,100581.41
2018-10-15T22:21:47.629Z,100581.47
2018-10-15T22:24:16.001Z,100586.66
2018-10-15T22:26:46.176Z,100589.56
2018-10-15T22:29:16.200Z,100597.33
2018-10-15T22:31:44.362Z,100594.89
2018-10-15T22:34:12.443Z,100596.31
2018-10-15T22:36:40.521Z,100594.63
2018-10-15T22:39:11.954Z,100604.19
2018-10-15T22:41:40.444Z,100595.02
2018-10-15T22:44:08.801Z,100600.63
2018-10-15T22:46:37.556Z,100601.22
2018-10-15T22:49:05.764Z,100601.22
2018-10-15T22:51:33.838Z,100597.03
2018-10-15T22:54:01.932Z,100603.52
2018-10-15T22:56:30.033Z,100595.64
2018-10-15T22:58:58.160Z,100598.12
2018-10-15T23:01:26.287Z,100599.00
2018-10-15T23:03:54.369Z,100601.91
2018-10-15T23:06:22.563Z,100607.42
2018-10-15T23:08:50.680Z,100607.49
2018-10-15T23:11:18.757Z,100614.13
2018-10-15T23:13:46.843Z,100607.78
2018-10-15T23:16:14.981Z,100616.05
2018-10-15T23:18:43.121Z,100612.64
2018-10-15T23:21:11.147Z,100610.88
2018-10-15T23:23:39.229Z,100621.10
2018-10-15T23:26:07.298Z,100622.35
2018-10-15T23:28:35.378Z,100630.89
2018-10-15T23:31:08.930Z,100626.44
2018-10-15T23:33:37.015Z,100626.67
2018-10-15T23:36:05.276Z,100632.49
2018-10-15T23:38:33.352Z,100635.77
2018-10-15T23:41:01.515Z,100637.20
2018-10-15T23:43:29.744Z,100639.42
2018-10-15T23:45:57.959Z,100641.86
2018-10-15T23:48:26.071Z,100647.21
2018-10-15T23:50:54.152Z,100649.75
2018-10-15T23:53:22.228Z,100644.57
2018-10-15T23:55:50.320Z,100646.81
2018-10-15T23:58:18.399Z,100645.80
